Time;durP1;ratioP1;P1;durP2;ratioP2;P2;SDS_P1;SDS_P2;PMS_P1;PMS_P2;Temp;Humidity;BMP_temperature;BMP_pressure;BME280_temperature;BME280_humidity;BME280_pressure;Samples;Min_cycle;Max_cycle;Signal;HPM_P1;HPM_P2
2022/03/29 00:00:27;;;;;;;31.70;19.63;;;;;;;7.58;80.48;101593.47;5032194;28;20045;-83
2022/03/29 00:02:53;;;;;;;31.37;19.90;;;;;;;7.41;80.41;101575.66;5032003;28;20957;-84
2022/03/29 00:05:18;;;;;;;32.73;20.00;;;;;;;7.41;80.18;101565.75;5032418;28;20038;-83
2022/03/29 00:07:44;;;;;;;29.13;20.10;;;;;;;7.40;80.85;101569.44;5032892;28;20041;-86
2022/03/29 00:10:10;;;;;;;30.80;20.60;;;;;;;7.36;80.63;101562.72;5024029;28;20049;-85
2022/03/29 00:12:36;;;;;;;31.07;20.33;;;;;;;7.31;81.34;101569.66;5031475;28;20124;-85
2022/03/29 00:15:04;;;;;;;32.23;20.57;;;;;;;7.17;81.49;101555.88;5032170;28;20435;-85
2022/03/29 00:17:31;;;;;;;30.40;20.07;;;;;;;7.40;81.72;101585.63;5032543;28;20060;-83
2022/03/29 00:19:56;;;;;;;34.17;20.70;;;;;;;7.23;81.74;101563.25;5032933;28;20057;-81
2022/03/29 00:22:21;;;;;;;31.20;21.30;;;;;;;7.19;81.42;101559.22;5031866;28;20067;-83
2022/03/29 00:24:47;;;;;;;31.43;21.13;;;;;;;7.19;81.50;101566.47;5031865;28;20084;-82
2022/03/29 00:27:12;;;;;;;33.40;22.20;;;;;;;7.19;81.61;101564.59;5031369;28;20053;-83
2022/03/29 00:29:37;;;;;;;30.90;21.10;;;;;;;7.16;81.66;101554.16;5013368;28;20135;-84
2022/03/29 00:32:04;;;;;;;29.53;20.43;;;;;;;7.08;81.71;101567.66;5031920;28;20648;-82
2022/03/29 00:34:29;;;;;;;29.80;20.23;;;;;;;7.02;81.91;101555.72;5024128;28;20451;-86
2022/03/29 00:36:55;;;;;;;31.83;20.77;;;;;;;7.08;82.13;101567.66;5031616;28;20045;-84
2022/03/29 00:39:20;;;;;;;31.97;21.30;;;;;;;6.99;82.20;101555.22;5031973;28;20045;-85
2022/03/29 00:41:45;;;;;;;32.40;21.17;;;;;;;6.95;82.52;101538.56;5031632;28;20171;-82
2022/03/29 00:44:15;;;;;;;31.43;20.40;;;;;;;6.81;82.77;101532.00;5031461;28;20376;-81
2022/03/29 00:46:40;;;;;;;35.67;21.53;;;;;;;6.91;82.82;101550.69;5013285;28;20045;-85
2022/03/29 00:49:06;;;;;;;30.23;21.27;;;;;;;6.73;82.83;101514.00;5030829;28;20037;-86
2022/03/29 00:51:31;;;;;;;33.87;21.43;;;;;;;6.83;82.53;101529.97;5010916;28;20385;-83
2022/03/29 00:53:57;;;;;;;31.97;21.63;;;;;;;6.71;83.11;101526.78;5013179;28;20048;-84
2022/03/29 00:56:22;;;;;;;29.03;20.87;;;;;;;6.70;82.79;101518.88;5031068;28;20050;-85
2022/03/29 00:58:49;;;;;;;32.20;21.17;;;;;;;6.60;83.07;101521.75;5012351;28;20037;-85
2022/03/29 01:01:15;;;;;;;33.13;22.00;;;;;;;6.63;83.31;101517.88;5031334;28;20045;-81
2022/03/29 01:03:41;;;;;;;30.70;22.20;;;;;;;6.54;83.33;101504.44;5031187;28;20052;-82
2022/03/29 01:06:08;;;;;;;33.30;22.57;;;;;;;6.52;83.24;101501.06;5030923;28;20040;-84
2022/03/29 01:08:35;;;;;;;35.53;22.23;;;;;;;6.49;83.23;101503.25;5023562;28;20041;-81
2022/03/29 01:11:02;;;;;;;33.23;22.83;;;;;;;6.61;83.90;101512.69;5012501;28;20067;-85
2022/03/29 01:13:27;;;;;;;33.53;22.37;;;;;;;6.49;83.67;101495.19;5030828;28;20050;-83
2022/03/29 01:15:53;;;;;;;32.63;22.30;;;;;;;6.44;83.87;101492.97;5030476;28;20472;-81
2022/03/29 01:18:20;;;;;;;35.23;23.90;;;;;;;6.41;84.19;101485.25;5013446;28;20551;-83
2022/03/29 01:20:48;;;;;;;35.27;23.27;;;;;;;6.43;84.19;101496.69;5031041;28;20178;-84
2022/03/29 01:23:14;;;;;;;34.17;24.03;;;;;;;6.51;84.85;101512.00;5029996;28;20049;-81
2022/03/29 01:25:40;;;;;;;34.77;23.47;;;;;;;6.59;85.29;101523.63;5019635;28;20049;-87
2022/03/29 01:28:06;;;;;;;37.17;25.20;;;;;;;6.38;85.22;101483.72;5031062;28;20080;-85
2022/03/29 01:30:33;;;;;;;36.20;25.23;;;;;;;6.44;85.29;101492.16;5030452;28;20056;-81
2022/03/29 01:33:01;;;;;;;35.60;24.13;;;;;;;6.43;85.71;101499.38;5012137;28;20444;-86
2022/03/29 01:35:28;;;;;;;38.17;26.30;;;;;;;6.40;86.08;101503.22;5019046;28;20065;-84
2022/03/29 01:37:55;;;;;;;38.60;25.13;;;;;;;6.44;86.13;101498.38;5030430;28;20056;-85
2022/03/29 01:40:23;;;;;;;37.23;25.10;;;;;;;6.32;86.37;101475.50;5023828;28;22065;-81
2022/03/29 01:42:55;;;;;;;39.37;25.63;;;;;;;6.34;86.14;101492.31;5031360;28;20047;-85
2022/03/29 01:45:23;;;;;;;37.50;26.27;;;;;;;6.32;86.30;101483.56;5031531;28;20052;-85
2022/03/29 01:47:48;;;;;;;41.13;26.73;;;;;;;6.35;86.85;101502.91;5031136;28;20685;-82
2022/03/29 01:50:14;;;;;;;41.50;27.03;;;;;;;6.25;86.69;101478.84;5031454;28;20076;-83
2022/03/29 01:52:41;;;;;;;40.93;27.13;;;;;;;6.15;86.96;101472.78;5022348;28;20086;-81
2022/03/29 01:55:10;;;;;;;37.97;26.53;;;;;;;6.34;87.22;101489.63;5031103;28;20038;-86
2022/03/29 01:57:36;;;;;;;38.57;26.70;;;;;;;6.33;87.15;101487.94;5012691;28;20469;-84
2022/03/29 02:02:52;;;;;;;37.67;25.27;;;;;;;6.09;86.12;101449.22;5031008;28;20103;-82
2022/03/29 02:05:18;;;;;;;36.70;25.77;;;;;;;6.12;85.93;101456.13;5031441;28;20098;-86
2022/03/29 02:07:44;;;;;;;37.97;27.03;;;;;;;6.12;86.46;101459.69;5030501;28;20045;-84
2022/03/29 02:10:10;;;;;;;37.17;26.07;;;;;;;6.20;86.47;101469.59;5031096;28;20500;-82
2022/03/29 02:12:36;;;;;;;40.43;27.37;;;;;;;6.21;87.12;101460.53;5030483;28;20052;-81
2022/03/29 02:15:01;;;;;;;41.97;28.87;;;;;;;6.23;87.03;101464.72;5030684;28;20064;-88
2022/03/29 02:17:28;;;;;;;43.43;28.63;;;;;;;6.07;87.13;101440.50;5030110;28;20130;-85
2022/03/29 02:19:54;;;;;;;43.27;28.97;;;;;;;6.04;87.25;101427.41;5031301;28;20045;-84
2022/03/29 02:22:19;;;;;;;44.67;29.13;;;;;;;6.07;87.44;101437.81;5012384;28;20072;-84
2022/03/29 02:24:44;;;;;;;42.30;29.17;;;;;;;6.05;87.54;101429.91;5014362;28;20080;-85
2022/03/29 02:27:10;;;;;;;44.60;28.80;;;;;;;6.14;87.19;101436.13;5030040;28;20104;-84
2022/03/29 02:29:35;;;;;;;44.10;29.90;;;;;;;6.19;87.56;101449.94;5032058;28;20046;-84
2022/03/29 02:32:01;;;;;;;46.60;31.00;;;;;;;6.16;87.57;101444.88;5029618;28;20452;-85
2022/03/29 02:34:26;;;;;;;42.10;29.27;;;;;;;6.17;87.50;101449.25;5030951;28;20049;-86
2022/03/29 02:36:51;;;;;;;43.60;30.27;;;;;;;6.04;87.38;101428.22;5032165;28;20067;-84
2022/03/29 02:39:17;;;;;;;49.53;32.07;;;;;;;6.14;87.84;101438.81;5028113;28;20389;-86
2022/03/29 02:41:42;;;;;;;44.53;31.63;;;;;;;5.97;87.64;101413.75;5033354;28;20044;-83
2022/03/29 02:44:08;;;;;;;42.53;31.33;;;;;;;5.92;87.82;101403.47;5035377;28;20130;-86
2022/03/29 02:46:34;;;;;;;47.47;31.63;;;;;;;5.99;87.85;101414.44;5032065;28;20179;-87
2022/03/29 02:49:00;;;;;;;49.63;32.87;;;;;;;6.14;88.20;101441.50;5034983;28;20536;-84
2022/03/29 02:51:25;;;;;;;46.53;32.87;;;;;;;5.95;88.42;101399.59;5034471;28;20049;-84
2022/03/29 02:53:50;;;;;;;49.17;34.00;;;;;;;6.02;89.13;101432.09;5033145;28;20117;-85
2022/03/29 02:56:16;;;;;;;48.83;33.13;;;;;;;5.94;89.11;101415.91;5025547;28;20111;-84
2022/03/29 02:58:41;;;;;;;49.27;33.47;;;;;;;5.87;89.17;101404.97;5016058;28;20132;-84
2022/03/29 03:01:06;;;;;;;47.27;32.73;;;;;;;6.01;89.30;101427.72;5033962;28;20076;-83
2022/03/29 03:03:32;;;;;;;48.37;33.17;;;;;;;5.84;88.92;101390.03;5033502;28;20761;-84
2022/03/29 03:05:58;;;;;;;49.30;34.50;;;;;;;5.82;88.97;101380.44;5034533;28;20226;-85
2022/03/29 03:08:23;;;;;;;50.47;34.73;;;;;;;5.90;89.12;101389.38;5034006;28;20048;-86
2022/03/29 03:10:49;;;;;;;49.03;34.97;;;;;;;5.96;88.87;101392.41;5005478;28;20374;-81
2022/03/29 03:13:15;;;;;;;52.93;36.20;;;;;;;6.02;88.75;101402.50;5033781;28;20048;-81
2022/03/29 03:15:41;;;;;;;50.10;35.80;;;;;;;5.82;88.77;101375.91;5025330;28;20096;-86
2022/03/29 03:18:07;;;;;;;51.07;34.70;;;;;;;6.11;88.74;101416.81;5032819;28;20136;-87
2022/03/29 03:20:32;;;;;;;49.90;34.33;;;;;;;5.91;88.39;101382.94;5034558;28;20056;-85
2022/03/29 03:22:57;;;;;;;51.97;35.93;;;;;;;5.90;88.47;101378.59;5014035;28;20103;-86
2022/03/29 03:25:23;;;;;;;54.10;36.57;;;;;;;5.96;88.49;101392.41;5032996;28;20053;-82
2022/03/29 03:27:48;;;;;;;51.40;35.73;;;;;;;5.88;88.38;101374.41;5032581;28;20053;-81
2022/03/29 03:30:16;;;;;;;49.17;34.50;;;;;;;5.80;88.54;101364.47;5031939;28;20048;-86
2022/03/29 03:32:42;;;;;;;53.63;35.47;;;;;;;5.93;88.55;101385.50;5033372;28;20360;-81
2022/03/29 03:35:09;;;;;;;48.47;34.77;;;;;;;5.79;88.47;101361.94;5033441;28;20062;-81
2022/03/29 03:37:34;;;;;;;50.47;34.97;;;;;;;5.75;88.38;101362.28;5025732;28;20324;-84
2022/03/29 03:40:00;;;;;;;50.30;35.23;;;;;;;5.74;88.38;101367.84;5033774;28;20044;-82
2022/03/29 03:42:26;;;;;;;50.73;36.17;;;;;;;5.72;88.38;101361.78;5033978;28;20045;-81
2022/03/29 03:44:51;;;;;;;54.53;37.00;;;;;;;5.72;88.54;101375.22;5025292;28;20044;-83
2022/03/29 03:47:17;;;;;;;52.70;36.90;;;;;;;5.77;88.82;101378.25;5013330;28;20048;-82
2022/03/29 03:49:42;;;;;;;54.67;38.67;;;;;;;5.60;89.62;101382.75;5031759;28;20083;-81
2022/03/29 03:52:08;;;;;;;51.47;37.03;;;;;;;5.41;89.74;101348.97;5024565;28;20091;-81
2022/03/29 03:54:35;;;;;;;52.47;37.33;;;;;;;5.41;90.30;101360.56;5033042;28;20037;-80
2022/03/29 03:57:01;;;;;;;52.07;36.67;;;;;;;5.39;90.08;101343.75;5014321;28;20045;-84
2022/03/29 03:59:26;;;;;;;55.57;38.20;;;;;;;5.54;90.38;101362.75;5033824;28;20056;-88
2022/03/29 04:01:51;;;;;;;52.80;38.03;;;;;;;5.58;89.96;101369.50;5032557;28;20045;-82
2022/03/29 04:04:18;;;;;;;52.73;37.97;;;;;;;5.57;90.01;101356.22;5030943;28;20099;-84
2022/03/29 04:06:44;;;;;;;56.60;39.67;;;;;;;5.50;89.99;101350.66;5033208;28;20045;-80
2022/03/29 04:09:09;;;;;;;55.27;37.83;;;;;;;5.62;89.94;101363.81;5015064;28;21773;-83
2022/03/29 04:11:35;;;;;;;51.80;37.20;;;;;;;5.55;89.71;101347.50;5033194;28;20745;-82
2022/03/29 04:14:01;;;;;;;53.37;37.40;;;;;;;5.44;89.69;101329.84;5032729;28;20036;-81
2022/03/29 04:16:27;;;;;;;51.70;37.17;;;;;;;5.51;90.01;101346.16;5032582;28;20053;-80
2022/03/29 04:18:52;;;;;;;51.33;36.63;;;;;;;5.53;89.96;101339.56;5033175;28;20045;-83
2022/03/29 04:21:18;;;;;;;54.93;37.73;;;;;;;5.58;89.84;101333.72;5013842;28;20754;-85
2022/03/29 04:23:43;;;;;;;57.03;38.43;;;;;;;5.50;90.04;101328.34;5023448;28;20385;-88
2022/03/29 04:26:09;;;;;;;53.73;37.53;;;;;;;5.55;89.95;101332.19;5031781;28;20042;-84
2022/03/29 04:28:34;;;;;;;56.37;39.30;;;;;;;5.57;89.87;101335.53;5024080;28;20045;-84
2022/03/29 04:31:00;;;;;;;55.63;39.17;;;;;;;5.52;90.22;101327.16;5032800;28;20047;-85
2022/03/29 04:33:26;;;;;;;61.63;40.30;;;;;;;5.54;90.24;101332.38;5031307;28;20048;-85
2022/03/29 04:35:51;;;;;;;63.83;40.53;;;;;;;5.66;90.53;101346.34;5002634;28;20041;-86
2022/03/29 04:38:17;;;;;;;65.20;42.63;;;;;;;5.51;90.87;101317.41;5032576;28;20073;-84
2022/03/29 04:40:42;;;;;;;65.37;41.37;;;;;;;5.54;91.24;101316.25;5032697;28;20068;-82
2022/03/29 04:43:08;;;;;;;65.83;42.33;;;;;;;5.53;91.44;101320.75;5029385;28;20030;-84
2022/03/29 04:45:33;;;;;;;68.13;42.60;;;;;;;5.53;91.89;101323.44;5013344;28;20038;-85
2022/03/29 04:47:59;;;;;;;66.40;42.40;;;;;;;5.64;91.75;101324.13;5032170;28;20045;-83
2022/03/29 04:50:25;;;;;;;67.47;42.50;;;;;;;5.47;91.89;101296.41;5013776;28;20037;-81
2022/03/29 04:52:51;;;;;;;67.30;42.63;;;;;;;5.61;92.07;101327.16;5031841;28;20047;-80
2022/03/29 04:55:18;;;;;;;68.23;43.00;;;;;;;5.64;92.07;101329.50;5031584;28;20052;-81
2022/03/29 04:57:47;;;;;;;71.47;43.20;;;;;;;5.64;92.26;101321.44;5032512;28;20583;-83
2022/03/29 05:00:14;;;;;;;71.87;44.40;;;;;;;5.64;92.53;101313.38;5013287;28;20046;-83
2022/03/29 05:02:41;;;;;;;75.00;44.60;;;;;;;5.84;92.51;101336.22;5031985;28;20072;-85
2022/03/29 05:05:07;;;;;;;76.90;44.73;;;;;;;5.85;92.68;101342.47;5031422;28;20136;-84
2022/03/29 05:07:33;;;;;;;73.87;44.57;;;;;;;5.70;92.38;101310.03;5042854;28;20045;-80
2022/03/29 05:09:58;;;;;;;75.03;45.27;;;;;;;5.68;92.62;101309.34;5041506;28;20105;-81
2022/03/29 05:12:24;;;;;;;74.30;45.00;;;;;;;5.73;92.51;101317.75;5031220;28;20129;-80
2022/03/29 05:14:49;;;;;;;76.27;44.70;;;;;;;5.84;92.64;101336.22;5014000;28;20477;-80
2022/03/29 05:17:14;;;;;;;79.00;46.23;;;;;;;5.60;92.70;101299.44;5031029;28;20083;-85
2022/03/29 05:19:40;;;;;;;76.80;45.10;;;;;;;5.56;93.09;101290.88;5030617;28;20049;-84
2022/03/29 05:22:06;;;;;;;75.43;44.47;;;;;;;5.62;92.93;101310.03;5014126;28;20045;-84
2022/03/29 05:24:31;;;;;;;73.77;44.33;;;;;;;5.64;93.17;101308.84;5024704;28;20051;-83
2022/03/29 05:26:57;;;;;;;73.70;44.10;;;;;;;5.85;93.21;101327.16;5032159;28;20041;-83
2022/03/29 05:29:25;;;;;;;78.07;45.10;;;;;;;5.65;93.10;101293.56;5031549;28;20496;-87
2022/03/29 05:31:50;;;;;;;72.37;43.77;;;;;;;5.64;93.00;101294.56;5031741;28;20041;-80
2022/03/29 05:34:16;;;;;;;74.57;43.60;;;;;;;5.58;93.39;101296.09;5030942;28;20091;-87
2022/03/29 05:36:44;;;;;;;71.80;43.27;;;;;;;5.60;93.18;101290.53;5013430;28;20047;-79
2022/03/29 05:39:10;;;;;;;75.50;44.63;;;;;;;5.67;93.55;101303.16;5036176;28;20030;-81
2022/03/29 05:41:36;;;;;;;78.60;45.67;;;;;;;5.56;93.43;101282.81;5014894;28;20038;-81
2022/03/29 05:44:01;;;;;;;79.27;44.80;;;;;;;5.47;93.70;101274.91;5026767;28;20046;-90
2022/03/29 05:49:11;;;;;;;80.90;44.95;;;;;;;5.43;94.12;101286.97;5031139;28;20099;-85
2022/03/29 05:51:36;;;;;;;78.43;45.07;;;;;;;5.38;94.48;101277.56;5022358;28;20066;-85
2022/03/29 05:54:04;;;;;;;81.30;45.57;;;;;;;5.61;94.53;101314.56;5031716;28;20052;-85
2022/03/29 05:56:29;;;;;;;75.80;45.17;;;;;;;5.50;94.93;101291.53;5033171;28;20076;-86
2022/03/29 05:58:54;;;;;;;81.10;46.00;;;;;;;5.54;94.98;101284.81;5020130;28;20152;-86
2022/03/29 06:01:20;;;;;;;83.03;46.63;;;;;;;5.73;94.99;101309.69;5014505;28;20055;-82
2022/03/29 06:03:45;;;;;;;79.20;44.70;;;;;;;5.55;95.06;101286.50;5033147;28;20119;-83
2022/03/29 06:06:13;;;;;;;80.27;46.27;;;;;;;5.60;94.91;101293.22;5025650;28;20045;-85
2022/03/29 06:08:38;;;;;;;82.33;46.37;;;;;;;5.58;95.73;101288.84;5032322;28;20048;-81
2022/03/29 06:11:07;;;;;;;80.70;45.47;;;;;;;5.58;95.74;101291.53;5033330;28;20049;-82
2022/03/29 06:13:33;;;;;;;80.00;45.23;;;;;;;5.77;95.42;101316.41;5027680;28;20139;-82
2022/03/29 06:15:59;;;;;;;82.43;45.60;;;;;;;5.58;95.49;101288.03;5035218;28;20045;-81
2022/03/29 06:18:25;;;;;;;86.53;47.17;;;;;;;5.55;95.63;101299.13;5017137;28;20425;-83
2022/03/29 06:20:51;;;;;;;79.83;45.77;;;;;;;5.52;95.70;101286.84;5023891;28;20148;-85
2022/03/29 06:23:17;;;;;;;80.13;44.30;;;;;;;5.58;95.93;101298.78;5033824;28;20044;-86
2022/03/29 06:25:43;;;;;;;82.00;45.07;;;;;;;5.66;95.78;101314.06;5035730;28;20045;-82
2022/03/29 06:28:10;;;;;;;80.33;44.93;;;;;;;5.77;95.90;101324.47;5034343;28;20075;-82
2022/03/29 06:30:36;;;;;;;79.53;44.07;;;;;;;5.65;95.88;101289.00;5035357;28;20124;-83
2022/03/29 06:33:02;;;;;;;80.93;45.80;;;;;;;5.89;95.65;101323.13;5033553;28;20041;-84
2022/03/29 06:35:30;;;;;;;78.00;42.97;;;;;;;5.73;95.36;101293.56;5035436;28;20187;-83
2022/03/29 06:37:58;;;;;;;75.23;43.00;;;;;;;5.72;95.34;101290.00;5035198;28;20041;-80
2022/03/29 06:40:25;;;;;;;82.00;44.77;;;;;;;5.81;95.22;101303.47;5016165;28;20080;-85
2022/03/29 06:42:51;;;;;;;78.13;43.77;;;;;;;5.70;94.96;101281.28;5034671;28;20040;-81
2022/03/29 06:45:17;;;;;;;75.40;43.30;;;;;;;5.79;95.30;101289.34;5035067;28;20048;-82
2022/03/29 06:47:43;;;;;;;75.37;43.53;;;;;;;5.79;94.85;101295.56;5035514;28;20045;-85
2022/03/29 06:50:10;;;;;;;74.83;43.83;;;;;;;5.98;95.39;101328.53;5014633;28;20650;-82
2022/03/29 06:52:37;;;;;;;75.60;42.73;;;;;;;5.95;95.06;101318.09;5033841;28;20485;-87
2022/03/29 06:55:04;;;;;;;76.70;42.43;;;;;;;5.82;94.97;101297.94;5034441;28;20502;-82
2022/03/29 06:57:30;;;;;;;75.10;41.97;;;;;;;5.72;94.74;101294.56;5034123;28;20119;-84
2022/03/29 06:59:55;;;;;;;75.73;41.33;;;;;;;5.83;94.51;101298.75;5026231;28;20053;-83
2022/03/29 07:02:21;;;;;;;79.63;42.80;;;;;;;5.62;94.84;101277.78;5026132;28;20049;-86
2022/03/29 07:04:46;;;;;;;80.40;42.37;;;;;;;5.61;94.81;101292.22;5033619;28;20084;-86
2022/03/29 07:07:12;;;;;;;84.03;42.70;;;;;;;5.84;94.39;101325.47;5033784;28;20095;-85
2022/03/29 07:12:21;;;;;;;80.50;42.40;;;;;;;5.61;95.62;101287.66;5035204;28;20451;-85
2022/03/29 07:14:47;;;;;;;82.80;41.83;;;;;;;5.61;95.64;101286.84;5014970;28;20037;-85
2022/03/29 07:17:15;;;;;;;80.63;42.73;;;;;;;5.60;95.60;101285.16;5027087;28;20092;-85
2022/03/29 07:19:41;;;;;;;90.87;43.77;;;;;;;5.59;95.46;101289.72;5034979;28;20049;-84
2022/03/29 07:22:06;;;;;;;89.50;45.53;;;;;;;5.62;95.50;101293.91;5036333;28;20107;-85
2022/03/29 07:24:31;;;;;;;86.10;44.27;;;;;;;5.63;95.33;101292.88;5034443;28;20103;-86
2022/03/29 07:26:57;;;;;;;84.60;44.23;;;;;;;5.78;95.45;101301.97;5035827;28;20068;-82
2022/03/29 07:29:23;;;;;;;83.23;43.67;;;;;;;5.88;95.53;101308.00;5033506;28;20050;-85
2022/03/29 07:31:48;;;;;;;81.30;42.67;;;;;;;5.81;95.45;101303.47;5033132;28;20118;-85
2022/03/29 07:34:14;;;;;;;84.77;43.87;;;;;;;5.84;95.41;101298.59;5034161;28;20037;-84
2022/03/29 07:36:41;;;;;;;92.73;45.13;;;;;;;5.73;95.38;101277.44;5016489;28;20068;-86
2022/03/29 07:39:07;;;;;;;81.80;42.97;;;;;;;5.90;95.35;101308.69;5034740;28;20065;-85
2022/03/29 07:41:33;;;;;;;82.23;43.17;;;;;;;5.91;95.37;101298.75;5015078;28;20081;-83
2022/03/29 07:43:59;;;;;;;77.97;42.23;;;;;;;5.91;95.09;101288.81;5026566;28;20723;-86
2022/03/29 07:46:24;;;;;;;73.13;40.67;;;;;;;6.03;94.95;101304.66;5033923;28;20053;-83
2022/03/29 07:48:50;;;;;;;72.80;40.90;;;;;;;5.99;94.59;101295.25;5034649;28;20520;-81
2022/03/29 07:51:17;;;;;;;68.80;40.50;;;;;;;6.28;94.69;101331.50;5035511;28;20132;-81
2022/03/29 07:53:42;;;;;;;70.50;40.67;;;;;;;6.10;94.75;101300.25;5034268;28;20045;-83
2022/03/29 07:56:08;;;;;;;73.53;41.50;;;;;;;6.16;94.41;101304.13;5027151;28;20500;-84
2022/03/29 07:58:33;;;;;;;69.33;40.60;;;;;;;6.12;94.33;101284.81;5034079;28;20053;-87
2022/03/29 08:01:00;;;;;;;65.70;39.80;;;;;;;6.27;94.07;101309.16;5033992;28;20048;-86
2022/03/29 08:03:32;;;;;;;64.00;39.40;;;;;;;6.42;94.03;101334.34;5033426;28;20111;-80
2022/03/29 08:05:58;;;;;;;67.13;40.27;;;;;;;6.30;93.92;101300.72;5033628;28;20064;-81
2022/03/29 08:08:24;;;;;;;67.83;38.73;;;;;;;6.36;93.72;101291.13;5033545;28;20396;-83
2022/03/29 08:10:49;;;;;;;66.57;38.90;;;;;;;6.40;92.94;101297.84;5016286;28;20043;-84
2022/03/29 08:13:16;;;;;;;64.60;39.30;;;;;;;6.53;92.78;101318.84;5023926;28;20485;-86
2022/03/29 08:15:43;;;;;;;67.53;40.33;;;;;;;6.42;92.46;101293.97;5034975;28;20045;-85
2022/03/29 08:18:08;;;;;;;63.70;39.37;;;;;;;6.50;92.07;101306.56;5035892;28;20083;-82
2022/03/29 08:20:35;;;;;;;64.23;39.57;;;;;;;6.54;92.61;101318.66;5036635;28;20456;-87
2022/03/29 08:23:01;;;;;;;66.90;40.40;;;;;;;6.55;92.15;101306.03;5034659;28;20060;-85
2022/03/29 08:25:32;;;;;;;71.07;40.33;;;;;;;6.52;92.16;101295.63;5017026;28;20386;-79
2022/03/29 08:27:59;;;;;;;68.07;39.67;;;;;;;6.51;92.06;101294.75;5032347;28;20033;-83
2022/03/29 08:30:25;;;;;;;65.70;38.23;;;;;;;6.80;92.13;101330.16;5044693;28;20045;-80
2022/03/29 08:32:52;;;;;;;65.70;39.37;;;;;;;6.56;91.60;101296.94;5026115;28;20076;-84
2022/03/29 08:35:18;;;;;;;69.87;40.53;;;;;;;6.49;92.00;101286.03;5039980;28;20069;-79
2022/03/29 08:37:43;;;;;;;63.67;39.43;;;;;;;6.50;92.11;101270.72;5034592;28;20140;-79
2022/03/29 08:40:12;;;;;;;64.47;39.00;;;;;;;6.61;91.91;101288.34;5038089;28;20041;-80
2022/03/29 08:42:46;;;;;;;63.40;39.13;;;;;;;6.62;91.65;101284.63;5039327;28;20053;-87
2022/03/29 08:45:13;;;;;;;63.87;39.90;;;;;;;6.74;91.58;101294.00;5040946;28;20037;-80
2022/03/29 08:47:40;;;;;;;62.10;38.77;;;;;;;6.63;91.35;101275.53;5042880;28;20052;-83
2022/03/29 08:50:08;;;;;;;64.10;38.97;;;;;;;6.92;91.50;101317.97;5037300;28;20047;-79
2022/03/29 08:52:35;;;;;;;64.00;39.30;;;;;;;6.78;91.52;101295.31;5041592;28;20360;-79
2022/03/29 08:55:03;;;;;;;67.07;39.70;;;;;;;6.65;91.19;101278.88;5041557;28;20040;-83
2022/03/29 08:57:29;;;;;;;63.13;38.60;;;;;;;6.67;91.34;101283.09;5033098;28;20046;-81
2022/03/29 08:59:55;;;;;;;67.60;40.57;;;;;;;6.59;91.53;101288.50;5033574;28;20661;-85
2022/03/29 09:02:21;;;;;;;68.93;41.40;;;;;;;6.55;91.38;101290.69;5031970;28;20087;-85
2022/03/29 09:05:09;;;;;;;67.70;40.07;;;;;;;6.74;92.11;101304.78;5034355;28;20073;-81
2022/03/29 09:08:08;;;;;;;64.20;39.40;;;;;;;6.67;91.87;101287.66;5034194;28;20044;-80
2022/03/29 09:10:45;;;;;;;67.10;40.80;;;;;;;6.61;91.77;101288.34;5028605;28;20046;-91
2022/03/29 09:13:16;;;;;;;66.20;39.13;;;;;;;6.73;92.05;101300.41;5032173;28;20495;-80
2022/03/29 09:15:41;;;;;;;62.50;38.93;;;;;;;6.84;91.96;101301.84;5030897;28;20039;-82
2022/03/29 09:18:08;;;;;;;64.20;38.67;;;;;;;6.95;91.46;101306.88;5032640;28;20060;-82
2022/03/29 09:20:34;;;;;;;61.33;38.70;;;;;;;6.81;91.40;101281.50;5034866;28;20404;-92
2022/03/29 09:22:59;;;;;;;64.00;37.57;;;;;;;6.88;90.93;101295.97;5025282;28;20053;-92
2022/03/29 09:25:35;;;;;;;59.97;37.33;;;;;;;6.84;90.71;101283.00;5023882;28;20052;-88
2022/03/29 09:28:10;;;;;;;60.03;37.03;;;;;;;6.75;90.35;101269.59;5027302;28;20037;-83
2022/03/29 09:30:47;;;;;;;60.53;38.10;;;;;;;6.77;90.53;101280.16;5026779;28;20090;-83
2022/03/29 09:33:19;;;;;;;60.40;37.10;;;;;;;6.80;90.86;101292.44;5038727;28;20123;-91
2022/03/29 09:35:59;;;;;;;57.70;36.80;;;;;;;6.97;90.59;101295.91;5025789;28;20049;-84
2022/03/29 09:38:34;;;;;;;60.97;37.00;;;;;;;6.88;90.74;101281.63;5030907;28;20050;-84
2022/03/29 09:41:01;;;;;;;60.73;38.03;;;;;;;7.04;90.72;101308.47;5041012;28;20415;-79
2022/03/29 09:43:29;;;;;;;58.93;36.83;;;;;;;7.15;90.81;101312.63;5016773;28;20036;-85
2022/03/29 09:45:59;;;;;;;58.30;37.30;;;;;;;7.11;90.87;101295.13;5028592;28;20041;-92
2022/03/29 09:48:36;;;;;;;56.13;35.30;;;;;;;7.16;90.59;101273.88;5036837;28;20049;-83
2022/03/29 09:51:07;;;;;;;56.63;36.13;;;;;;;7.42;90.18;101305.91;5037331;28;20743;-92
2022/03/29 09:53:34;;;;;;;58.27;36.77;;;;;;;7.22;89.73;101262.41;5032590;28;20049;-87
2022/03/29 09:56:00;;;;;;;58.43;35.73;;;;;;;7.36;89.71;101281.53;5035196;28;20045;-83
2022/03/29 09:58:26;;;;;;;53.50;35.67;;;;;;;7.46;89.24;101300.97;5032395;28;20041;-80
2022/03/29 10:00:52;;;;;;;54.17;34.53;;;;;;;7.34;89.16;101264.69;5030542;28;20041;-83
2022/03/29 10:03:18;;;;;;;54.07;33.97;;;;;;;7.30;88.94;101263.34;5033818;28;21003;-85
2022/03/29 10:05:49;;;;;;;55.80;35.80;;;;;;;7.38;89.65;101269.50;5041660;28;20069;-84
2022/03/29 10:11:01;;;;;;;60.40;37.60;;;;;;;7.23;88.88;101239.81;5031687;28;20065;-89
2022/03/29 10:13:28;;;;;;;57.47;36.50;;;;;;;7.37;88.94;101240.03;5034555;28;20071;-85
2022/03/29 10:15:55;;;;;;;60.37;37.10;;;;;;;7.48;88.79;101249.56;5034265;28;20107;-83
2022/03/29 10:18:24;;;;;;;62.13;38.20;;;;;;;7.37;88.95;101218.47;5036586;28;20048;-85
2022/03/29 10:20:49;;;;;;;62.47;38.33;;;;;;;7.51;88.39;101252.75;5036997;28;20412;-85
2022/03/29 10:23:18;;;;;;;60.83;38.07;;;;;;;7.56;89.11;101238.69;5036916;28;20043;-86
2022/03/29 10:25:44;;;;;;;64.50;39.13;;;;;;;7.58;89.31;101229.41;5037714;28;20582;-83
2022/03/29 10:28:10;;;;;;;64.70;40.43;;;;;;;7.76;88.73;101257.91;5038736;28;20582;-80
2022/03/29 10:30:37;;;;;;;65.70;39.70;;;;;;;7.85;87.94;101267.59;5034735;28;20097;-82
2022/03/29 10:33:23;;;;;;;71.43;39.97;;;;;;;7.77;88.25;101238.03;5027635;28;20477;-84
2022/03/29 10:36:06;;;;;;;64.03;40.13;;;;;;;7.71;88.13;101220.72;5028963;28;20094;-79
2022/03/29 10:41:28;;;;;;;61.60;38.03;;;;;;;8.10;87.08;101259.25;5030924;28;20042;-79
2022/03/29 10:43:55;;;;;;;58.67;36.60;;;;;;;8.04;87.34;101236.56;5028833;28;20048;-92
2022/03/29 10:46:22;;;;;;;59.00;38.57;;;;;;;8.10;87.07;101238.53;5032764;28;20420;-80
2022/03/29 10:49:28;;;;;;;58.17;36.80;;;;;;;8.41;86.46;101264.47;5032565;28;20495;-79
2022/03/29 10:52:05;;;;;;;59.90;38.90;;;;;;;8.31;85.51;101249.56;4971491;28;20054;-83
2022/03/29 10:54:50;;;;;;;58.07;37.70;;;;;;;8.54;85.63;101253.06;5032309;28;20063;-83
2022/03/29 10:57:28;;;;;;;;;;;;;;;8.79;85.23;101250.84;5033502;28;20059;-80
2022/03/29 11:00:06;;;;;;;58.03;38.20;;;;;;;8.89;84.08;101255.13;5038199;28;20032;-90
2022/03/29 11:02:32;;;;;;;54.80;36.77;;;;;;;8.95;83.22;101227.34;5039459;28;20136;-81
2022/03/29 11:05:06;;;;;;;52.47;35.67;;;;;;;8.98;82.09;101237.75;5032588;28;20053;-86
2022/03/29 11:07:37;;;;;;;53.42;34.72;;;;;;;8.99;82.15;101212.41;5031822;28;20064;-91
2022/03/29 11:10:16;;;;;;;50.17;35.47;;;;;;;9.09;81.78;101201.28;5033116;28;20044;-84
2022/03/29 11:12:53;;;;;;;50.47;35.23;;;;;;;9.15;80.35;101200.47;5052291;28;20033;-84
2022/03/29 11:15:24;;;;;;;50.50;37.00;;;;;;;9.38;79.97;101216.50;5034690;28;20049;-85
2022/03/29 11:17:53;;;;;;;52.23;36.17;;;;;;;9.43;80.39;101200.53;5044571;28;20041;-88
2022/03/29 11:20:38;;;;;;;50.23;35.63;;;;;;;9.49;79.73;101184.56;5031973;28;20052;-80
2022/03/29 11:23:08;;;;;;;56.35;38.75;;;;;;;9.67;79.65;101193.03;5034266;28;20041;-85
2022/03/29 11:25:45;;;;;;;49.87;35.73;;;;;;;9.76;78.37;101182.88;5027939;28;20439;-91
2022/03/29 11:28:16;;;;;;;48.23;34.20;;;;;;;9.80;76.87;101185.00;5031342;28;20179;-83
2022/03/29 11:30:42;;;;;;;50.23;34.90;;;;;;;9.96;77.02;101175.69;5036947;28;20548;-83